createdAt,value
2022-10-19T00:01:03.692Z,15.07
2022-10-19T00:03:31.812Z,15.20
2022-10-19T00:05:59.847Z,14.83
2022-10-19T00:08:28.290Z,13.50
2022-10-19T00:10:56.395Z,14.43
2022-10-19T00:13:24.463Z,14.83
2022-10-19T00:15:53.967Z,16.20
2022-10-19T00:18:22.044Z,14.90
2022-10-19T00:20:50.061Z,14.80
2022-10-19T00:23:18.178Z,13.97
2022-10-19T00:25:56.247Z,14.50
2022-10-19T00:28:24.451Z,14.07
2022-10-19T00:30:53.932Z,13.37
2022-10-19T00:33:22.609Z,14.37
2022-10-19T00:35:52.353Z,14.83
2022-10-19T00:38:21.897Z,14.40
2022-10-19T00:40:50.337Z,15.70
2022-10-19T00:43:20.642Z,16.43
2022-10-19T00:45:48.734Z,15.53
2022-10-19T00:48:25.920Z,13.13
2022-10-19T00:50:56.346Z,14.23
2022-10-19T00:53:27.078Z,14.83
2022-10-19T00:55:55.446Z,14.63
2022-10-19T00:58:23.512Z,13.33
2022-10-19T01:00:51.710Z,14.60
2022-10-19T01:03:22.283Z,14.17
2022-10-19T01:05:50.958Z,14.57
2022-10-19T01:08:19.311Z,14.07
2022-10-19T01:10:59.038Z,13.30
2022-10-19T01:13:42.045Z,13.50
2022-10-19T01:16:18.121Z,14.00
2022-10-19T01:18:56.006Z,14.90
2022-10-19T01:21:27.134Z,14.97
2022-10-19T01:24:47.297Z,14.33
2022-10-19T01:27:52.014Z,14.70
2022-10-19T01:30:34.634Z,13.90
2022-10-19T01:33:17.315Z,13.77
2022-10-19T01:35:54.958Z,15.37
2022-10-19T01:38:31.342Z,13.90
2022-10-19T01:41:05.410Z,13.53
2022-10-19T01:43:41.193Z,14.33
2022-10-19T01:46:15.040Z,14.43
2022-10-19T01:48:48.289Z,15.27
2022-10-19T01:51:20.427Z,14.57
2022-10-19T01:53:52.316Z,14.00
2022-10-19T01:56:25.274Z,14.03
2022-10-19T01:58:57.753Z,15.67
2022-10-19T02:01:31.289Z,15.80
2022-10-19T02:04:01.551Z,16.03
2022-10-19T02:06:31.108Z,15.40
2022-10-19T02:08:59.275Z,15.07
2022-10-19T02:11:27.449Z,15.30
2022-10-19T02:14:00.455Z,14.57
2022-10-19T02:16:34.003Z,16.27
2022-10-19T02:19:04.025Z,15.90
2022-10-19T02:21:33.319Z,15.73
2022-10-19T02:24:01.672Z,15.30
2022-10-19T02:26:29.798Z,15.97
2022-10-19T02:28:58.409Z,17.50
2022-10-19T02:31:27.362Z,14.70
2022-10-19T02:33:56.707Z,14.37
2022-10-19T02:36:24.920Z,14.13
2022-10-19T02:38:53.098Z,15.90
2022-10-19T02:41:25.104Z,15.77
2022-10-19T02:43:59.437Z,20.33
2022-10-19T02:46:33.392Z,15.40
2022-10-19T02:49:04.739Z,16.20
2022-10-19T02:51:34.671Z,16.43
2022-10-19T02:54:05.234Z,17.87
2022-10-19T02:56:34.414Z,17.90
2022-10-19T02:59:03.061Z,19.50
2022-10-19T03:01:31.175Z,20.80
2022-10-19T03:03:59.225Z,20.97
2022-10-19T03:06:28.676Z,20.87
2022-10-19T03:08:56.804Z,23.70
2022-10-19T03:11:24.877Z,21.93
2022-10-19T03:13:53.031Z,21.60
2022-10-19T03:16:21.104Z,20.93
2022-10-19T03:18:49.406Z,20.60
2022-10-19T03:21:17.790Z,17.20
2022-10-19T03:23:47.307Z,17.60
2022-10-19T03:26:17.740Z,18.67
2022-10-19T03:28:46.005Z,17.70
2022-10-19T03:31:14.264Z,18.83
2022-10-19T03:33:42.310Z,20.63
2022-10-19T03:36:19.777Z,18.77
2022-10-19T03:38:51.280Z,19.70
2022-10-19T03:41:19.905Z,22.20
2022-10-19T03:43:48.492Z,19.70
2022-10-19T03:46:17.136Z,22.10
2022-10-19T03:48:46.000Z,21.60
2022-10-19T03:51:15.674Z,24.60
2022-10-19T03:53:43.934Z,24.10
2022-10-19T03:56:15.194Z,24.30
2022-10-19T03:58:44.519Z,24.60
2022-10-19T04:01:14.566Z,27.53
2022-10-19T04:03:42.722Z,26.47
2022-10-19T04:06:15.846Z,27.50
2022-10-19T04:08:49.122Z,27.73
2022-10-19T04:11:21.290Z,26.43
2022-10-19T04:13:50.280Z,25.23
2022-10-19T04:16:18.679Z,24.60
2022-10-19T04:18:46.729Z,25.63
2022-10-19T04:21:22.836Z,26.80
2022-10-19T04:23:51.789Z,27.53
2022-10-19T04:26:21.730Z,29.53
2022-10-19T04:28:50.111Z,32.63
2022-10-19T04:31:18.255Z,30.23
2022-10-19T04:36:19.497Z,31.57
2022-10-19T04:38:47.543Z,28.63
2022-10-19T04:41:17.736Z,28.87
2022-10-19T04:43:48.129Z,30.93
2022-10-19T04:46:17.752Z,33.97
2022-10-19T04:48:46.985Z,29.17
2022-10-19T04:51:15.964Z,31.40
2022-10-19T04:53:44.669Z,30.47
2022-10-19T04:56:14.640Z,29.93
2022-10-19T04:58:42.737Z,28.00
2022-10-19T05:01:13.976Z,28.70
2022-10-19T05:03:42.758Z,26.43
2022-10-19T05:06:11.828Z,27.80
2022-10-19T05:08:40.317Z,29.27
2022-10-19T05:11:10.506Z,27.70
2022-10-19T05:13:39.322Z,27.50
2022-10-19T05:16:10.690Z,26.03
2022-10-19T05:18:40.706Z,26.60
2022-10-19T05:21:10.621Z,22.77
2022-10-19T05:23:39.525Z,22.77
2022-10-19T05:26:09.017Z,21.73
2022-10-19T05:28:37.889Z,22.70
2022-10-19T05:31:08.014Z,22.67
2022-10-19T05:33:36.679Z,22.80
2022-10-19T05:36:18.609Z,22.00
2022-10-19T05:38:48.875Z,19.03
2022-10-19T05:41:17.744Z,23.10
2022-10-19T05:43:47.976Z,24.17
2022-10-19T05:46:18.185Z,21.87
2022-10-19T05:48:46.982Z,21.67
2022-10-19T05:51:18.391Z,22.37
2022-10-19T05:53:46.738Z,20.50
2022-10-19T05:56:16.686Z,25.43
2022-10-19T05:58:45.153Z,22.30
2022-10-19T06:01:13.950Z,24.47
2022-10-19T06:03:42.256Z,24.03
2022-10-19T06:06:10.909Z,18.13
2022-10-19T06:08:40.702Z,26.80
2022-10-19T06:11:11.184Z,24.47
2022-10-19T06:13:40.494Z,24.47
2022-10-19T06:16:10.267Z,24.67
2022-10-19T06:18:39.164Z,25.60
2022-10-19T06:21:09.670Z,26.03
2022-10-19T06:23:38.488Z,28.17
2022-10-19T06:26:10.273Z,27.17
2022-10-19T06:28:40.252Z,26.03
2022-10-19T06:31:09.558Z,27.63
2022-10-19T06:33:39.961Z,29.53
2022-10-19T06:36:08.778Z,29.90
2022-10-19T06:38:37.065Z,24.67
2022-10-19T06:41:07.465Z,29.83
2022-10-19T06:43:36.489Z,29.37
2022-10-19T06:46:06.329Z,34.50
2022-10-19T06:48:34.530Z,19.97
2022-10-19T06:51:06.357Z,24.57
2022-10-19T06:53:34.879Z,26.97
2022-10-19T06:56:04.790Z,26.87
2022-10-19T06:58:36.649Z,26.37
2022-10-19T07:01:07.572Z,32.30
2022-10-19T07:03:36.787Z,34.50
2022-10-19T07:06:07.051Z,34.90
2022-10-19T07:08:36.802Z,28.73
2022-10-19T07:11:07.852Z,32.03
2022-10-19T07:13:37.577Z,29.37
2022-10-19T07:16:07.661Z,31.30
2022-10-19T07:18:36.648Z,18.47
2022-10-19T07:21:07.080Z,37.23
2022-10-19T07:23:36.455Z,37.70
2022-10-19T07:26:09.789Z,33.23
2022-10-19T07:28:40.335Z,35.60
2022-10-19T07:31:10.488Z,30.30
2022-10-19T07:33:38.838Z,31.60
2022-10-19T07:36:08.932Z,27.70
2022-10-19T07:38:37.762Z,26.00
2022-10-19T07:41:08.146Z,25.67
2022-10-19T07:43:36.828Z,28.33
2022-10-19T07:46:08.059Z,29.43
2022-10-19T07:48:36.478Z,25.67
2022-10-19T07:51:07.860Z,28.60
2022-10-19T07:53:36.607Z,26.77
2022-10-19T07:56:06.212Z,24.37
2022-10-19T07:58:34.661Z,23.27
2022-10-19T08:01:03.368Z,26.90
2022-10-19T08:06:21.753Z,23.40
2022-10-19T08:08:50.180Z,26.67
2022-10-19T08:11:21.444Z,24.17
2022-10-19T08:13:50.372Z,23.83
2022-10-19T08:16:24.621Z,22.97
2022-10-19T08:18:57.283Z,27.67
2022-10-19T08:21:25.570Z,24.30
2022-10-19T08:23:53.770Z,29.17
2022-10-19T08:26:22.231Z,27.10
2022-10-19T08:28:50.290Z,24.40
2022-10-19T08:31:20.415Z,27.50
2022-10-19T08:33:51.040Z,18.30
2022-10-19T08:36:21.499Z,24.40
2022-10-19T08:38:50.234Z,22.27
2022-10-19T08:41:31.845Z,19.93
2022-10-19T08:44:22.282Z,19.87
2022-10-19T08:47:02.743Z,25.53
2022-10-19T08:49:33.464Z,18.07
2022-10-19T08:52:06.694Z,20.03
2022-10-19T08:54:42.247Z,19.33
2022-10-19T08:57:25.321Z,20.97
2022-10-19T09:00:01.693Z,19.40
2022-10-19T09:02:44.845Z,22.77
2022-10-19T09:05:22.491Z,17.17
2022-10-19T09:07:54.583Z,19.50
2022-10-19T09:10:27.420Z,23.83
2022-10-19T09:12:59.252Z,13.13
2022-10-19T09:15:33.652Z,23.07
2022-10-19T09:18:02.658Z,21.50
2022-10-19T09:20:36.447Z,20.40
2022-10-19T09:23:19.809Z,22.77
2022-10-19T09:25:49.677Z,18.27
2022-10-19T09:28:36.654Z,20.73
2022-10-19T09:31:13.962Z,17.70
2022-10-19T09:33:44.971Z,21.67
2022-10-19T09:36:22.410Z,21.40
2022-10-19T09:38:57.049Z,18.07
2022-10-19T09:41:26.266Z,18.57
2022-10-19T09:43:56.361Z,16.27
2022-10-19T09:46:48.540Z,18.27
2022-10-19T09:49:16.967Z,23.37
2022-10-19T09:51:52.145Z,17.80
2022-10-19T09:54:34.884Z,15.97
2022-10-19T09:57:03.252Z,20.50
2022-10-19T09:59:35.014Z,18.67
2022-10-19T10:02:17.737Z,20.00
2022-10-19T10:04:55.691Z,16.70
2022-10-19T10:07:28.252Z,18.23
2022-10-19T10:09:57.708Z,17.37
2022-10-19T10:12:25.796Z,20.90
2022-10-19T10:14:56.277Z,19.67
2022-10-19T10:17:30.390Z,19.23
2022-10-19T10:20:23.391Z,19.60
2022-10-19T10:22:57.954Z,20.87
2022-10-19T10:25:30.688Z,19.70
2022-10-19T10:28:01.603Z,17.33
2022-10-19T10:30:34.828Z,20.97
2022-10-19T10:33:13.351Z,20.03
2022-10-19T10:35:55.574Z,16.87
2022-10-19T10:38:26.389Z,15.63
2022-10-19T10:40:58.775Z,15.57
2022-10-19T10:43:31.878Z,15.97
2022-10-19T10:46:05.152Z,15.23
2022-10-19T10:48:37.323Z,15.10
2022-10-19T10:51:19.815Z,14.53
2022-10-19T10:53:48.145Z,15.33
2022-10-19T10:56:29.420Z,13.47
2022-10-19T10:59:01.573Z,11.10
2022-10-19T11:01:34.071Z,11.37
2022-10-19T11:04:06.549Z,9.63
2022-10-19T11:06:42.268Z,8.47
2022-10-19T11:09:23.007Z,9.57
2022-10-19T11:11:56.123Z,8.07
2022-10-19T11:14:31.414Z,7.80
2022-10-19T11:17:01.905Z,9.07
2022-10-19T11:19:36.057Z,8.00
2022-10-19T11:22:15.128Z,7.63
2022-10-19T11:24:53.376Z,6.50
2022-10-19T11:27:36.171Z,7.23
2022-10-19T11:30:11.490Z,6.90
2022-10-19T11:32:52.843Z,7.47
2022-10-19T11:35:41.925Z,6.70
2022-10-19T11:38:26.270Z,6.37
2022-10-19T11:41:17.258Z,7.67
2022-10-19T11:43:59.189Z,8.57
2022-10-19T11:46:35.623Z,7.40
2022-10-19T11:49:15.445Z,8.77
2022-10-19T11:51:53.437Z,9.07
2022-10-19T11:54:34.288Z,10.50
2022-10-19T11:57:11.368Z,8.60
2022-10-19T12:00:00.215Z,9.80
2022-10-19T12:03:17.580Z,8.17
2022-10-19T12:06:03.959Z,9.23
2022-10-19T12:08:46.417Z,9.60
2022-10-19T12:11:29.189Z,9.70
2022-10-19T12:14:00.043Z,13.97
2022-10-19T12:16:36.949Z,15.90
2022-10-19T12:19:06.752Z,11.77
2022-10-19T12:21:38.572Z,13.40
2022-10-19T12:24:14.875Z,10.60
2022-10-19T12:26:43.425Z,13.20
2022-10-19T12:29:16.885Z,14.40
2022-10-19T12:31:47.444Z,11.37
2022-10-19T12:34:27.630Z,12.00
2022-10-19T12:37:01.886Z,13.50
2022-10-19T12:39:40.427Z,11.63
2022-10-19T12:42:14.959Z,11.67
2022-10-19T12:45:07.402Z,12.07
2022-10-19T12:47:37.175Z,12.57
2022-10-19T12:50:06.131Z,12.50
2022-10-19T12:52:44.444Z,12.80
2022-10-19T12:55:29.718Z,13.10
2022-10-19T12:58:01.363Z,12.23
2022-10-19T13:00:32.610Z,12.33
2022-10-19T13:03:05.835Z,14.10
2022-10-19T13:05:35.764Z,12.27
2022-10-19T13:08:08.074Z,13.10
2022-10-19T13:10:39.027Z,13.40
2022-10-19T13:13:14.421Z,11.83
2022-10-19T13:15:53.005Z,14.07
2022-10-19T13:19:07.382Z,11.87
2022-10-19T13:22:02.826Z,13.60
2022-10-19T13:24:34.721Z,11.47
2022-10-19T13:27:26.073Z,13.00
2022-10-19T13:29:54.159Z,12.00
2022-10-19T13:32:38.541Z,11.60
2022-10-19T13:35:27.573Z,12.07
2022-10-19T13:38:26.299Z,9.67
2022-10-19T13:41:04.453Z,12.43
2022-10-19T13:43:35.408Z,10.10
2022-10-19T13:46:16.092Z,11.27
2022-10-19T13:49:06.996Z,12.60
2022-10-19T13:51:42.122Z,11.87
2022-10-19T13:54:27.538Z,12.77
2022-10-19T13:57:11.059Z,10.37
2022-10-19T14:00:02.618Z,10.47
2022-10-19T14:03:02.000Z,8.73
2022-10-19T14:06:08.457Z,8.63
2022-10-19T14:09:04.503Z,9.97
2022-10-19T14:11:37.108Z,10.30
2022-10-19T14:14:14.760Z,9.53
2022-10-19T14:16:58.310Z,9.80
2022-10-19T14:19:32.287Z,8.37
2022-10-19T14:22:02.340Z,8.40
2022-10-19T14:24:33.126Z,7.57
2022-10-19T14:27:04.334Z,8.60
2022-10-19T14:29:38.568Z,8.17
2022-10-19T14:32:06.811Z,7.27
2022-10-19T14:34:34.815Z,6.70
2022-10-19T14:37:02.948Z,7.17
2022-10-19T14:39:33.648Z,7.57
2022-10-19T14:42:07.526Z,6.70
2022-10-19T14:44:41.542Z,6.63
2022-10-19T14:47:21.965Z,7.30
2022-10-19T14:49:51.175Z,6.57
2022-10-19T14:52:24.087Z,7.50
2022-10-19T14:54:55.539Z,7.10
2022-10-19T14:57:30.139Z,5.67
2022-10-19T15:00:02.344Z,6.13
2022-10-19T15:02:33.431Z,6.13
2022-10-19T15:05:05.122Z,6.90
2022-10-19T15:07:38.483Z,6.20
2022-10-19T15:10:09.236Z,6.90
2022-10-19T15:12:41.286Z,7.83
2022-10-19T15:15:12.242Z,6.30
2022-10-19T15:17:52.219Z,6.73
2022-10-19T15:20:29.864Z,7.13
2022-10-19T15:22:59.292Z,7.87
2022-10-19T15:25:33.386Z,7.07
2022-10-19T15:28:32.417Z,6.30
2022-10-19T15:31:06.945Z,8.23
2022-10-19T15:33:40.344Z,8.80
2022-10-19T15:36:16.841Z,6.90
2022-10-19T15:38:46.157Z,6.53
2022-10-19T15:41:20.031Z,6.63
2022-10-19T15:43:50.968Z,7.17
2022-10-19T15:46:26.666Z,7.73
2022-10-19T15:48:55.955Z,8.20
2022-10-19T15:51:44.857Z,6.13
2022-10-19T15:54:15.835Z,6.50
2022-10-19T15:56:45.164Z,6.33
2022-10-19T15:59:15.943Z,6.77
2022-10-19T16:01:51.119Z,7.03
2022-10-19T16:04:23.188Z,6.00
2022-10-19T16:06:51.383Z,6.70
2022-10-19T16:09:22.352Z,7.07
2022-10-19T16:11:56.410Z,7.00
2022-10-19T16:14:26.194Z,7.53
2022-10-19T16:17:03.682Z,6.37
2022-10-19T16:19:31.769Z,7.17
2022-10-19T16:21:59.819Z,7.73
2022-10-19T16:24:27.954Z,9.30
2022-10-19T16:26:56.102Z,8.63
2022-10-19T16:29:28.196Z,8.40
2022-10-19T16:31:58.712Z,8.50
2022-10-19T16:34:26.866Z,8.10
2022-10-19T16:36:55.261Z,8.50
2022-10-19T16:39:25.466Z,8.13
2022-10-19T16:41:53.669Z,7.67
2022-10-19T16:44:22.010Z,11.50
2022-10-19T16:46:50.129Z,8.80
2022-10-19T16:49:19.639Z,7.67
2022-10-19T16:51:48.061Z,7.70
2022-10-19T16:54:17.661Z,9.13
2022-10-19T16:56:47.434Z,8.37
2022-10-19T16:59:18.187Z,10.10
2022-10-19T17:01:47.299Z,8.50
2022-10-19T17:04:17.991Z,9.13
2022-10-19T17:06:47.578Z,9.97
2022-10-19T17:09:41.333Z,8.50
2022-10-19T17:12:03.821Z,9.20
2022-10-19T17:14:31.801Z,8.70
2022-10-19T17:17:00.178Z,10.13
2022-10-19T17:19:28.224Z,10.13
2022-10-19T17:21:59.035Z,9.10
2022-10-19T17:24:27.364Z,10.30
2022-10-19T17:26:55.653Z,8.27
2022-10-19T17:29:24.117Z,9.00
2022-10-19T17:31:52.137Z,9.33
2022-10-19T17:34:20.163Z,9.37
2022-10-19T17:36:48.610Z,8.80
2022-10-19T17:39:22.137Z,8.40
2022-10-19T17:41:52.903Z,10.10
2022-10-19T17:44:22.177Z,8.43
2022-10-19T17:46:50.277Z,9.70
2022-10-19T17:49:18.769Z,11.70
2022-10-19T17:51:46.778Z,10.70
2022-10-19T17:54:15.684Z,9.50
2022-10-19T17:56:45.923Z,9.50
2022-10-19T17:59:13.926Z,9.87
2022-10-19T18:01:42.024Z,10.07
2022-10-19T18:04:09.981Z,10.03
2022-10-19T18:06:39.339Z,11.67
2022-10-19T18:09:09.063Z,11.30
2022-10-19T18:11:40.117Z,10.93
2022-10-19T18:14:11.333Z,11.13
2022-10-19T18:16:41.564Z,11.17
2022-10-19T18:19:10.037Z,10.70
2022-10-19T18:21:39.749Z,11.77
2022-10-19T18:24:12.714Z,11.77
2022-10-19T18:26:43.753Z,8.40
2022-10-19T18:29:16.284Z,12.17
2022-10-19T18:31:44.223Z,10.20
2022-10-19T18:34:15.530Z,10.60
2022-10-19T18:36:43.739Z,11.93
2022-10-19T18:39:13.234Z,10.43
2022-10-19T18:41:41.774Z,10.50
2022-10-19T18:44:14.373Z,10.40
2022-10-19T18:46:42.511Z,11.57
2022-10-19T18:49:12.691Z,10.40
2022-10-19T18:51:41.023Z,7.97
2022-10-19T18:54:09.604Z,10.90
2022-10-19T18:56:37.608Z,9.90
2022-10-19T18:59:05.968Z,10.60
2022-10-19T19:01:35.457Z,10.30
2022-10-19T19:04:09.208Z,10.00
2022-10-19T19:06:39.391Z,10.00
2022-10-19T19:09:09.818Z,10.33
2022-10-19T19:11:40.742Z,10.40
2022-10-19T19:14:13.756Z,9.47
2022-10-19T19:16:45.521Z,11.37
2022-10-19T19:19:16.227Z,11.53
2022-10-19T19:21:45.110Z,11.50
2022-10-19T19:24:15.369Z,11.87
2022-10-19T19:26:47.465Z,11.47
2022-10-19T19:29:15.815Z,10.30
2022-10-19T19:31:45.613Z,10.33
2022-10-19T19:34:13.706Z,10.80
2022-10-19T19:36:47.377Z,11.20
2022-10-19T19:39:16.805Z,10.97
2022-10-19T19:41:44.904Z,10.50
2022-10-19T19:44:13.003Z,10.90
2022-10-19T19:46:41.116Z,12.60
2022-10-19T19:49:10.770Z,11.20
2022-10-19T19:51:39.139Z,11.23
2022-10-19T19:54:07.418Z,11.83
2022-10-19T19:56:37.223Z,12.30
2022-10-19T19:59:05.265Z,11.57
2022-10-19T20:01:34.017Z,12.63
2022-10-19T20:06:39.178Z,11.57
2022-10-19T20:09:08.650Z,11.63
2022-10-19T20:11:41.869Z,13.80
2022-10-19T20:14:10.574Z,12.30
2022-10-19T20:16:38.762Z,16.10
2022-10-19T20:19:10.374Z,11.47
2022-10-19T20:21:40.749Z,12.57
2022-10-19T20:24:09.502Z,14.27
2022-10-19T20:26:37.596Z,11.80
2022-10-19T20:29:06.387Z,11.30
2022-10-19T20:31:39.541Z,12.80
2022-10-19T20:34:13.713Z,11.87
2022-10-19T20:36:43.652Z,16.07
2022-10-19T20:39:11.955Z,10.90
2022-10-19T20:41:40.115Z,11.37
2022-10-19T20:44:08.319Z,12.90
2022-10-19T20:46:37.010Z,11.80
2022-10-19T20:49:05.357Z,12.40
2022-10-19T20:51:36.642Z,12.33
2022-10-19T20:54:08.149Z,12.00
2022-10-19T20:56:37.955Z,11.97
2022-10-19T20:59:07.914Z,12.77
2022-10-19T21:01:38.043Z,11.43
2022-10-19T21:04:09.218Z,11.73
2022-10-19T21:06:39.924Z,11.20
2022-10-19T21:09:09.643Z,14.23
2022-10-19T21:11:39.866Z,13.20
2022-10-19T21:14:09.789Z,10.60
2022-10-19T21:16:38.616Z,12.10
2022-10-19T21:19:09.468Z,13.87
2022-10-19T21:21:39.393Z,11.97
2022-10-19T21:24:12.485Z,13.93
2022-10-19T21:26:41.007Z,15.33
2022-10-19T21:29:10.831Z,14.80
2022-10-19T21:31:40.788Z,14.10
2022-10-19T21:34:15.874Z,18.03
2022-10-19T21:36:44.600Z,16.60
2022-10-19T21:39:14.011Z,15.23
2022-10-19T21:41:42.295Z,17.50
2022-10-19T21:44:10.557Z,14.03
2022-10-19T21:46:38.666Z,14.67
2022-10-19T21:49:06.689Z,13.77
2022-10-19T21:51:37.618Z,14.00
2022-10-19T21:54:06.874Z,14.30
2022-10-19T21:56:37.526Z,13.97
2022-10-19T21:59:05.939Z,13.87
2022-10-19T22:01:38.561Z,14.93
2022-10-19T22:04:11.886Z,15.27
2022-10-19T22:06:40.488Z,15.90
2022-10-19T22:09:10.453Z,17.80
2022-10-19T22:11:39.941Z,14.07
2022-10-19T22:14:08.116Z,14.50
2022-10-19T22:16:37.030Z,14.70
2022-10-19T22:19:06.745Z,16.97
2022-10-19T22:21:35.879Z,17.33
2022-10-19T22:24:06.730Z,17.60
2022-10-19T22:26:36.910Z,13.63
2022-10-19T22:29:07.627Z,15.60
2022-10-19T22:31:36.444Z,14.20
2022-10-19T22:34:08.481Z,13.10
2022-10-19T22:36:36.654Z,14.80
2022-10-19T22:39:05.054Z,13.13
2022-10-19T22:41:33.062Z,14.30
2022-10-19T22:44:01.261Z,16.00
2022-10-19T22:46:30.671Z,15.73
2022-10-19T22:49:00.205Z,14.17
2022-10-19T22:51:28.283Z,17.40
2022-10-19T22:53:56.444Z,19.17
2022-10-19T22:56:24.529Z,16.90
2022-10-19T22:58:52.616Z,20.33
2022-10-19T23:01:20.981Z,21.63
2022-10-19T23:03:50.446Z,17.90
2022-10-19T23:06:18.587Z,22.53
2022-10-19T23:08:47.212Z,25.50
2022-10-19T23:11:16.062Z,25.10
2022-10-19T23:13:44.502Z,23.13
2022-10-19T23:16:12.773Z,20.80
2022-10-19T23:18:42.168Z,20.87
2022-10-19T23:21:13.817Z,24.80
2022-10-19T23:23:42.444Z,20.07
2022-10-19T23:26:12.885Z,20.70
2022-10-19T23:28:42.909Z,26.60
2022-10-19T23:31:12.910Z,25.50
2022-10-19T23:33:41.697Z,27.30
2022-10-19T23:36:14.265Z,29.57
2022-10-19T23:38:42.941Z,24.50
2022-10-19T23:41:11.379Z,32.43
2022-10-19T23:43:39.437Z,28.27
2022-10-19T23:46:07.951Z,29.33
2022-10-19T23:48:36.542Z,28.20
2022-10-19T23:51:06.533Z,33.67
2022-10-19T23:53:41.040Z,28.63
2022-10-19T23:56:12.422Z,31.63
2022-10-19T23:58:40.497Z,31.97
